Time;durP1;ratioP1;P1;durP2;ratioP2;P2;SDS_P1;SDS_P2;PMS_P1;PMS_P2;Temp;Humidity;BMP_temperature;BMP_pressure;BME280_temperature;BME280_humidity;BME280_pressure;Samples;Min_cycle;Max_cycle;Signal;HPM_P1;HPM_P2
2022/08/26 06:18:53;;;;;;;14.60;11.20;;;28.90;99.90;;;;;;6136704;23;20748;-83
2022/08/26 06:21:21;;;;;;;15.00;11.52;;;28.90;99.90;;;;;;6104556;23;20017;-82
2022/08/26 06:26:36;;;;;;;14.75;11.73;;;28.70;99.90;;;;;;6130229;23;20009;-81
2022/08/26 06:29:04;;;;;;;17.05;13.88;;;28.60;99.90;;;;;;6130117;23;20100;-81
2022/08/26 06:31:35;;;;;;;17.85;11.57;;;28.40;99.90;;;;;;6105814;23;20393;-81
2022/08/26 06:34:03;;;;;;;15.80;13.07;;;28.50;99.90;;;;;;6155268;23;20009;-80
2022/08/26 06:36:31;;;;;;;16.08;12.65;;;28.70;99.90;;;;;;6105020;23;20010;-81
2022/08/26 06:39:04;;;;;;;16.85;11.55;;;28.70;99.90;;;;;;6105222;23;20335;-81
2022/08/26 06:41:32;;;;;;;16.17;13.13;;;28.60;99.90;;;;;;6130036;23;20489;-81
2022/08/26 06:44:00;;;;;;;12.85;11.57;;;28.90;99.90;;;;;;6135220;23;20044;-80
2022/08/26 06:46:28;;;;;;;15.80;11.43;;;29.00;99.90;;;;;;6185919;23;20076;-81
2022/08/26 06:48:57;;;;;;;13.93;11.13;;;29.10;99.90;;;;;;6135100;23;20036;-87
2022/08/26 06:51:27;;;;;;;15.65;13.73;;;29.10;99.90;;;;;;6136269;23;20019;-90
2022/08/26 06:53:58;;;;;;;14.02;12.45;;;29.30;99.90;;;;;;6136044;23;20013;-88
2022/08/26 06:56:37;;;;;;;15.38;11.75;;;29.50;99.90;;;;;;6136141;23;20371;-88
2022/08/26 06:59:05;;;;;;;15.57;12.00;;;29.70;99.90;;;;;;6135878;23;20519;-87
2022/08/26 07:01:36;;;;;;;23.40;14.13;;;29.90;99.90;;;;;;6135860;23;20036;-89
2022/08/26 07:04:05;;;;;;;21.08;17.90;;;30.20;99.90;;;;;;6136032;23;20009;-87
2022/08/26 07:06:36;;;;;;;13.60;12.32;;;30.10;99.90;;;;;;6135606;23;20445;-86
2022/08/26 07:09:04;;;;;;;15.90;14.23;;;29.80;99.90;;;;;;6160402;23;20020;-89
2022/08/26 07:11:32;;;;;;;14.25;12.90;;;30.10;99.90;;;;;;6161128;23;20060;-89
2022/08/26 07:13:59;;;;;;;16.52;13.55;;;30.60;99.90;;;;;;6137084;23;20017;-89
2022/08/26 07:16:27;;;;;;;14.30;12.00;;;30.50;99.90;;;;;;6136185;23;20098;-88
2022/08/26 07:18:55;;;;;;;18.67;12.60;;;30.70;99.90;;;;;;6136139;23;20009;-89
2022/08/26 07:21:22;;;;;;;13.75;12.30;;;30.90;99.90;;;;;;6136068;23;20076;-89
2022/08/26 07:23:49;;;;;;;15.32;13.65;;;30.70;99.90;;;;;;6136330;23;20013;-89
2022/08/26 07:26:22;;;;;;;15.23;12.40;;;30.50;99.90;;;;;;6136741;23;20036;-89
2022/08/26 07:28:51;;;;;;;13.88;12.23;;;30.30;99.90;;;;;;6138458;23;20009;-89
2022/08/26 07:31:20;;;;;;;16.63;12.60;;;30.30;99.90;;;;;;6138281;23;20087;-90
2022/08/26 07:33:47;;;;;;;14.32;12.98;;;30.50;99.90;;;;;;6138459;23;20088;-90
2022/08/26 07:36:16;;;;;;;18.00;13.23;;;30.60;99.90;;;;;;6138789;23;20040;-89
2022/08/26 07:38:44;;;;;;;20.65;13.25;;;30.60;99.90;;;;;;6138894;23;20005;-88
2022/08/26 07:41:12;;;;;;;19.30;13.63;;;30.60;99.90;;;;;;6156666;23;20023;-88
2022/08/26 07:43:39;;;;;;;19.90;13.93;;;30.50;99.90;;;;;;6153707;23;20009;-89
2022/08/26 07:46:08;;;;;;;17.95;13.85;;;30.40;99.90;;;;;;6138495;23;20067;-88
2022/08/26 07:48:35;;;;;;;17.00;13.43;;;30.30;99.90;;;;;;6162463;23;20013;-89
2022/08/26 07:51:02;;;;;;;14.18;12.93;;;30.20;99.90;;;;;;6131601;23;20012;-88
2022/08/26 07:53:29;;;;;;;17.85;13.75;;;30.20;99.90;;;;;;6137669;23;20017;-89
2022/08/26 07:55:57;;;;;;;18.95;13.75;;;30.30;99.90;;;;;;6137571;23;20012;-88
2022/08/26 07:58:24;;;;;;;16.65;13.00;;;30.20;99.90;;;;;;6164903;23;20064;-88
2022/08/26 08:00:50;;;;;;;13.35;12.05;;;30.30;99.90;;;;;;6137075;23;20005;-86
2022/08/26 08:03:17;;;;;;;15.90;13.02;;;30.50;99.90;;;;;;6136645;23;20443;-85
2022/08/26 08:05:44;;;;;;;17.95;13.52;;;30.50;99.90;;;;;;6136202;23;20015;-85
2022/08/26 08:08:11;;;;;;;23.15;13.63;;;30.70;99.90;;;;;;6137332;23;20091;-88
2022/08/26 08:10:37;;;;;;;15.23;13.40;;;30.20;99.90;;;;;;6136921;23;20005;-89
2022/08/26 08:13:08;;;;;;;14.85;13.30;;;30.00;99.90;;;;;;6137407;23;20009;-88
2022/08/26 08:15:36;;;;;;;19.45;14.60;;;30.20;99.90;;;;;;6137343;23;20027;-89
2022/08/26 08:18:05;;;;;;;14.85;12.32;;;30.30;99.90;;;;;;6137178;23;20024;-87
2022/08/26 08:20:32;;;;;;;15.50;14.05;;;30.60;99.90;;;;;;6136674;23;20017;-86
2022/08/26 08:23:02;;;;;;;15.98;14.48;;;30.60;99.90;;;;;;6136625;23;20393;-85
2022/08/26 08:25:31;;;;;;;18.15;13.85;;;30.50;99.90;;;;;;6136992;23;20422;-87
2022/08/26 08:27:58;;;;;;;16.08;13.75;;;30.10;99.90;;;;;;6137186;23;20039;-87
2022/08/26 08:30:25;;;;;;;15.10;13.60;;;30.10;99.90;;;;;;6137187;23;20005;-87
2022/08/26 08:32:52;;;;;;;16.73;13.65;;;30.50;99.90;;;;;;6137140;23;20016;-88
2022/08/26 08:35:21;;;;;;;15.93;14.02;;;30.50;99.90;;;;;;6137052;23;20537;-87
2022/08/26 08:37:53;;;;;;;20.33;13.95;;;30.60;99.90;;;;;;6136977;23;20001;-87
2022/08/26 08:40:22;;;;;;;14.85;13.40;;;30.30;99.90;;;;;;6137043;23;20435;-86
2022/08/26 08:43:02;;;;;;;20.38;14.50;;;30.50;99.90;;;;;;6137081;23;20001;-87
2022/08/26 08:45:38;;;;;;;17.17;14.27;;;30.70;99.90;;;;;;6136815;23;20042;-86
2022/08/26 08:48:24;;;;;;;16.25;14.43;;;30.70;99.90;;;;;;6136465;23;20554;-86
2022/08/26 08:51:07;;;;;;;19.63;14.10;;;31.10;99.90;;;;;;6136023;23;20009;-85
2022/08/26 08:53:42;;;;;;;15.93;13.63;;;30.90;99.90;;;;;;6135777;23;20013;-84
2022/08/26 08:56:24;;;;;;;19.70;14.23;;;30.60;99.90;;;;;;6136192;23;20013;-86
2022/08/26 08:59:18;;;;;;;21.27;14.18;;;30.90;99.90;;;;;;6135450;23;20089;-84
2022/08/26 09:01:56;;;;;;;14.93;13.35;;;30.90;99.90;;;;;;6135339;23;20016;-85
2022/08/26 09:04:47;;;;;;;16.25;14.02;;;31.10;99.90;;;;;;6135004;23;20013;-82
2022/08/26 09:07:30;;;;;;;15.55;13.25;;;30.80;99.90;;;;;;6134745;23;20064;-81
2022/08/26 09:09:59;;;;;;;21.13;13.50;;;30.50;99.90;;;;;;6185796;23;20009;-81
2022/08/26 09:12:30;;;;;;;16.70;14.77;;;30.50;99.90;;;;;;6159203;23;20080;-82
2022/08/26 09:15:10;;;;;;;21.05;14.00;;;30.30;99.90;;;;;;6159403;23;20092;-85
2022/08/26 09:17:55;;;;;;;20.88;13.60;;;30.30;99.90;;;;;;6134809;23;20012;-85
2022/08/26 09:20:44;;;;;;;21.35;13.55;;;30.40;99.90;;;;;;6158935;23;20024;-83
2022/08/26 09:23:10;;;;;;;32.80;14.80;;;30.30;99.90;;;;;;6134882;23;20001;-85
2022/08/26 09:25:49;;;;;;;18.42;13.35;;;30.40;99.90;;;;;;6134642;23;20005;-85
2022/08/26 09:28:19;;;;;;;19.77;13.65;;;30.50;99.90;;;;;;6159336;23;20076;-83
2022/08/26 09:30:56;;;;;;;17.48;13.60;;;30.20;99.90;;;;;;6159126;23;20008;-84
2022/08/26 09:33:28;;;;;;;18.65;12.60;;;30.20;99.90;;;;;;6159395;23;20084;-85
2022/08/26 09:36:15;;;;;;;16.13;13.30;;;30.40;99.90;;;;;;6135016;23;20017;-85
2022/08/26 09:38:42;;;;;;;15.90;13.15;;;30.20;99.90;;;;;;6135283;23;20019;-85
2022/08/26 09:41:24;;;;;;;18.77;15.27;;;30.30;99.90;;;;;;6135532;23;20493;-86
2022/08/26 09:44:20;;;;;;;18.25;13.75;;;30.40;99.90;;;;;;6135977;23;20013;-86
2022/08/26 09:46:55;;;;;;;21.50;15.23;;;30.30;99.90;;;;;;6020107;23;20006;-86
2022/08/26 09:49:39;;;;;;;17.10;14.88;;;30.30;99.90;;;;;;6043197;23;20051;-87
2022/08/26 09:52:19;;;;;;;19.00;14.15;;;30.60;99.90;;;;;;6043804;23;20082;-86
2022/08/26 09:55:11;;;;;;;15.60;13.90;;;30.00;99.90;;;;;;6043578;23;20023;-87
2022/08/26 09:57:52;;;;;;;14.65;13.02;;;29.90;99.90;;;;;;6043998;23;20113;-87
2022/08/26 10:00:29;;;;;;;17.08;14.20;;;29.80;99.90;;;;;;6043370;23;20408;-87
2022/08/26 10:02:59;;;;;;;16.90;14.10;;;29.90;99.90;;;;;;6043426;23;20083;-87
2022/08/26 10:05:54;;;;;;;25.60;14.52;;;30.00;99.90;;;;;;6043597;23;20006;-87
2022/08/26 10:08:25;;;;;;;18.52;14.63;;;30.50;99.90;;;;;;6067409;23;20038;-88
2022/08/26 10:10:55;;;;;;;19.95;14.00;;;30.50;99.90;;;;;;6019769;23;20022;-87
2022/08/26 10:13:42;;;;;;;18.63;14.63;;;30.60;99.90;;;;;;6043427;23;20438;-87
2022/08/26 10:16:22;;;;;;;17.10;13.88;;;30.90;99.90;;;;;;6043610;23;20011;-87
2022/08/26 10:19:11;;;;;;;22.33;14.10;;;30.80;99.90;;;;;;6067397;23;20067;-87
2022/08/26 10:22:05;;;;;;;27.17;15.90;;;30.80;99.90;;;;;;6019721;23;20085;-88
2022/08/26 10:24:43;;;;;;;16.35;14.18;;;30.80;99.90;;;;;;6094648;23;20061;-87
2022/08/26 10:27:35;;;;;;;23.90;15.02;;;30.80;99.90;;;;;;6106094;23;20009;-88
2022/08/26 10:30:09;;;;;;;29.80;15.82;;;30.50;99.90;;;;;;6105897;23;20017;-89
2022/08/26 10:32:40;;;;;;;23.63;16.13;;;30.60;99.90;;;;;;6107841;23;20025;-88
2022/08/26 10:35:10;;;;;;;18.83;15.07;;;30.60;99.90;;;;;;6130217;23;20538;-88
2022/08/26 10:37:48;;;;;;;25.23;16.52;;;30.60;99.90;;;;;;6105602;23;20016;-87
2022/08/26 10:40:25;;;;;;;22.33;15.30;;;30.50;99.90;;;;;;6105496;23;20013;-86
2022/08/26 10:43:05;;;;;;;20.70;15.00;;;30.30;99.90;;;;;;6105466;23;20009;-87
2022/08/26 10:45:36;;;;;;;21.95;15.32;;;30.30;99.90;;;;;;6124959;23;20505;-85
2022/08/26 10:48:09;;;;;;;20.00;15.48;;;30.50;99.90;;;;;;6135811;23;20462;-86
2022/08/26 10:50:42;;;;;;;19.40;14.60;;;30.50;99.90;;;;;;6137137;23;20060;-86
2022/08/26 10:53:21;;;;;;;24.77;15.38;;;30.30;99.90;;;;;;6139844;23;20251;-84
2022/08/26 10:55:59;;;;;;;17.83;14.82;;;30.50;99.90;;;;;;6160523;23;20048;-86
2022/08/26 10:58:57;;;;;;;22.48;15.15;;;30.60;99.90;;;;;;6135439;23;20066;-85
2022/08/26 11:01:48;;;;;;;29.13;16.40;;;30.70;99.90;;;;;;6135456;23;20009;-85
2022/08/26 11:04:27;;;;;;;17.75;15.95;;;30.90;99.90;;;;;;6135458;23;20627;-85
2022/08/26 11:07:27;;;;;;;23.38;15.25;;;30.80;99.90;;;;;;6136368;23;20009;-85
2022/08/26 11:09:53;;;;;;;20.17;15.45;;;30.60;99.90;;;;;;6137816;23;20020;-84
2022/08/26 11:12:34;;;;;;;18.90;14.63;;;30.50;99.90;;;;;;6135262;23;20450;-83
2022/08/26 11:15:21;;;;;;;18.88;14.88;;;30.50;99.90;;;;;;6160013;23;20013;-82
2022/08/26 11:23:23;;;;;;;19.42;14.88;;;30.90;99.90;;;;;;6074020;23;20064;-93
2022/08/26 11:25:55;;;;;;;24.35;14.90;;;30.80;99.90;;;;;;5985619;23;20017;-92
2022/08/26 11:28:34;;;;;;;15.77;14.05;;;30.60;99.90;;;;;;6048818;23;20373;-91
2022/08/26 11:31:01;;;;;;;22.48;15.70;;;30.70;99.90;;;;;;6076018;23;20009;-91
2022/08/26 11:33:43;;;;;;;30.77;14.95;;;30.90;99.90;;;;;;6101365;23;20088;-94
2022/08/26 11:36:45;;;;;;;21.55;15.45;;;30.70;99.90;;;;;;6078601;23;20018;-94
2022/08/26 11:39:46;;;;;;;16.92;14.80;;;30.70;99.90;;;;;;6087201;23;21446;-93
2022/08/26 11:42:36;;;;;;;;;;;;;;;;;;;;;
2022/08/26 11:47:41;;;;;;;21.13;14.43;;;31.10;99.90;;;;;;6166731;23;20028;-94
2022/08/26 11:50:15;;;;;;;19.10;15.10;;;31.10;99.90;;;;;;6106209;23;20002;-94
2022/08/26 11:53:43;;;;;;;;;;;;;;;;;;;;;
2022/08/26 11:56:32;;;;;;;17.60;15.30;;;31.10;99.90;;;;;;6148049;23;20021;-93
2022/08/26 12:18:48;;;;;;;17.67;15.52;;;31.10;99.90;;;;;;6171470;23;20999;-94
2022/08/26 12:25:04;;;;;;;;;;;;;;;;;;;;;
2022/08/26 12:33:42;;;;;;;;;;;;;;;;;;;;;
2022/08/26 12:39:46;;;;;;;17.70;15.18;;;31.00;99.90;;;;;;6165492;23;20077;-94
2022/08/26 12:42:16;;;;;;;22.63;15.25;;;31.10;99.90;;;;;;6056894;23;20007;-92
2022/08/26 12:45:05;;;;;;;23.58;15.35;;;31.20;99.90;;;;;;6053725;23;20027;-93
2022/08/26 12:47:41;;;;;;;20.75;15.27;;;31.30;99.90;;;;;;6045508;23;20018;-92
2022/08/26 12:50:21;;;;;;;17.15;15.43;;;31.10;99.90;;;;;;6045451;23;20043;-93
2022/08/26 12:53:36;;;;;;;22.25;17.17;;;31.30;99.90;;;;;;6050370;23;20011;-93
2022/08/26 12:56:18;;;;;;;21.55;15.95;;;31.10;99.90;;;;;;6025937;23;20019;-91
2022/08/26 12:59:00;;;;;;;17.58;15.63;;;31.20;99.90;;;;;;6044902;23;20013;-93
2022/08/26 13:01:36;;;;;;;28.13;16.52;;;31.20;99.90;;;;;;6021404;23;20015;-92
2022/08/26 13:04:03;;;;;;;29.55;17.00;;;31.00;99.90;;;;;;6021637;23;20014;-91
2022/08/26 13:06:30;;;;;;;17.85;15.98;;;31.10;99.90;;;;;;6021542;23;20002;-93
2022/08/26 13:09:08;;;;;;;20.83;15.57;;;31.10;99.90;;;;;;6058593;23;20022;-91
2022/08/26 13:11:40;;;;;;;29.65;15.50;;;31.10;99.90;;;;;;6065984;23;20007;-91
2022/08/26 13:14:11;;;;;;;22.98;15.55;;;31.20;99.90;;;;;;6069786;23;20031;-92
2022/08/26 13:16:45;;;;;;;20.15;15.25;;;31.30;99.90;;;;;;6045130;23;20098;-92
2022/08/26 13:19:19;;;;;;;18.50;15.30;;;31.30;99.90;;;;;;6025632;23;20085;-92
2022/08/26 13:21:48;;;;;;;19.48;15.55;;;31.30;99.90;;;;;;6027436;23;20097;-93
2022/08/26 13:24:44;;;;;;;20.30;15.63;;;31.40;99.90;;;;;;6023621;23;20010;-93
2022/08/26 13:27:34;;;;;;;17.23;15.43;;;31.30;99.90;;;;;;5962058;24;20479;-93
2022/08/26 13:30:21;;;;;;;17.60;15.60;;;31.30;99.90;;;;;;5931922;24;20015;-93
2022/08/26 13:36:31;;;;;;;21.25;17.15;;;31.10;99.90;;;;;;5957062;24;20082;-92
2022/08/26 13:38:58;;;;;;;18.95;15.88;;;30.90;99.90;;;;;;6006174;23;20024;-93
2022/08/26 13:41:24;;;;;;;16.90;15.23;;;31.00;99.90;;;;;;5994119;23;20081;-93
2022/08/26 13:44:32;;;;;;;17.48;15.65;;;31.00;99.90;;;;;;6024865;23;20066;-94
2022/08/26 13:47:07;;;;;;;17.10;15.32;;;30.90;99.90;;;;;;6097290;23;20390;-94
2022/08/26 14:01:19;;;;;;;17.48;14.95;;;30.70;99.90;;;;;;6132777;23;20020;-93
2022/08/26 14:03:46;;;;;;;18.10;14.98;;;30.60;99.90;;;;;;6079548;23;20002;-92
2022/08/26 14:06:13;;;;;;;17.02;15.05;;;30.70;99.90;;;;;;6078473;23;20009;-94
2022/08/26 14:08:40;;;;;;;24.65;15.45;;;30.70;99.90;;;;;;6081009;23;20089;-94
2022/08/26 14:11:07;;;;;;;17.92;15.30;;;30.70;99.90;;;;;;6084155;23;20068;-92
2022/08/26 14:13:38;;;;;;;16.90;15.20;;;30.80;99.90;;;;;;6091357;23;19998;-94
2022/08/26 14:16:10;;;;;;;18.02;15.73;;;31.00;99.90;;;;;;6117363;23;20066;-92
2022/08/26 14:18:39;;;;;;;16.75;14.70;;;31.20;99.90;;;;;;6141407;23;20423;-93
2022/08/26 14:21:07;;;;;;;17.75;15.95;;;31.20;99.90;;;;;;6120018;23;20010;-95
2022/08/26 14:23:39;;;;;;;19.35;15.45;;;31.00;99.90;;;;;;6142915;23;20009;-94
2022/08/26 14:26:09;;;;;;;17.77;15.40;;;31.00;99.90;;;;;;6117165;23;20017;-93
2022/08/26 14:28:39;;;;;;;19.13;16.38;;;30.80;99.90;;;;;;6138402;23;20029;-94
2022/08/26 14:31:06;;;;;;;18.40;15.57;;;30.80;99.90;;;;;;6110807;23;20006;-92
2022/08/26 14:33:37;;;;;;;24.25;15.75;;;30.70;99.90;;;;;;6134545;23;20092;-94
2022/08/26 14:38:52;;;;;;;17.17;15.13;;;30.40;99.90;;;;;;6134511;23;20084;-94
2022/08/26 14:41:20;;;;;;;19.85;15.48;;;30.50;99.90;;;;;;6110679;23;20014;-93
2022/08/26 14:43:53;;;;;;;17.20;15.05;;;30.60;99.90;;;;;;6137486;23;20016;-95
2022/08/26 14:46:30;;;;;;;20.95;14.90;;;30.50;99.90;;;;;;6144447;23;20009;-94
2022/08/26 14:49:00;;;;;;;20.92;14.50;;;30.60;99.90;;;;;;6120932;23;20466;-94
2022/08/26 15:03:15;;;;;;;21.20;15.45;;;30.30;99.90;;;;;;6178651;23;20012;-95
2022/08/26 15:05:58;;;;;;;17.23;14.15;;;30.20;99.90;;;;;;6124907;23;20034;-94
2022/08/26 15:11:23;;;;;;;16.40;13.70;;;30.10;99.90;;;;;;6146992;23;20076;-92
2022/08/26 15:13:50;;;;;;;16.30;14.52;;;29.70;99.90;;;;;;6113232;23;20057;-94
2022/08/26 15:16:26;;;;;;;16.10;14.25;;;29.80;99.90;;;;;;6123934;23;20009;-94
2022/08/26 15:19:23;;;;;;;19.23;13.68;;;29.80;99.90;;;;;;6123920;23;20069;-93
2022/08/26 15:22:15;;;;;;;17.00;15.20;;;30.00;99.90;;;;;;6172807;23;20043;-93
2022/08/26 15:24:52;;;;;;;19.90;14.30;;;29.90;99.90;;;;;;6160515;23;20009;-94
2022/08/26 15:28:00;;;;;;;21.55;14.30;;;29.70;99.90;;;;;;6146882;23;20256;-94
2022/08/26 15:37:37;;;;;;;;;;;;;;;;;;;;;
2022/08/26 15:52:53;;;;;;;;;;;;;;;;;;;;;
2022/08/26 15:55:51;;;;;;;22.55;14.20;;;29.00;99.90;;;;;;6135902;23;20044;-92
2022/08/26 15:58:33;;;;;;;23.95;14.10;;;29.00;99.90;;;;;;6103755;23;20010;-92
2022/08/26 16:00:59;;;;;;;17.77;13.43;;;28.90;99.90;;;;;;6104115;23;20337;-92
2022/08/26 16:03:26;;;;;;;16.75;13.55;;;28.90;99.90;;;;;;6080747;23;20006;-94
2022/08/26 16:05:55;;;;;;;22.88;13.95;;;28.80;99.90;;;;;;6080158;23;20017;-92
2022/08/26 16:08:41;;;;;;;16.92;14.32;;;28.70;99.90;;;;;;6081691;23;20006;-92
2022/08/26 16:11:17;;;;;;;21.38;13.93;;;28.70;99.90;;;;;;6079821;23;20017;-93
2022/08/26 16:13:45;;;;;;;15.97;13.67;;;28.50;99.90;;;;;;6101551;23;20020;-92
2022/08/26 16:16:12;;;;;;;22.25;14.80;;;28.50;99.90;;;;;;6103717;23;20038;-94
2022/08/26 16:18:39;;;;;;;18.63;13.75;;;28.40;99.90;;;;;;6087384;23;20002;-92
2022/08/26 16:21:06;;;;;;;17.48;13.93;;;28.30;99.90;;;;;;6078409;23;20042;-93
2022/08/26 16:23:37;;;;;;;18.85;13.77;;;28.20;99.90;;;;;;6102682;23;20017;-95
2022/08/26 16:26:51;;;;;;;20.02;13.30;;;28.20;99.90;;;;;;6080007;23;20083;-93
2022/08/26 16:34:29;;;;;;;15.98;14.15;;;28.00;99.90;;;;;;6130906;23;20122;-96
2022/08/26 16:37:26;;;;;;;;;;;;;;;;;;;;;
2022/08/26 16:47:08;;;;;;;20.33;16.17;;;27.70;99.90;;;;;;6045508;23;20243;-94
2022/08/26 16:50:05;;;;;;;22.60;16.20;;;27.70;99.90;;;;;;6044442;23;20114;-95
2022/08/26 16:52:34;;;;;;;21.77;16.63;;;27.70;99.90;;;;;;6063847;23;20068;-93
2022/08/26 16:55:20;;;;;;;22.98;15.32;;;27.70;99.90;;;;;;6071825;23;20003;-92
2022/08/26 16:58:23;;;;;;;21.20;15.35;;;27.70;99.90;;;;;;6074927;23;20403;-94
2022/08/26 17:00:53;;;;;;;18.77;14.55;;;27.60;99.90;;;;;;6064509;23;20007;-93
2022/08/26 17:03:28;;;;;;;24.25;15.80;;;27.50;99.90;;;;;;6044965;23;20021;-93
2022/08/26 17:06:11;;;;;;;21.58;14.95;;;27.50;99.90;;;;;;6043938;23;20014;-93
2022/08/26 17:08:41;;;;;;;23.85;14.82;;;27.40;99.90;;;;;;6045112;23;20014;-93
2022/08/26 17:11:22;;;;;;;17.35;14.40;;;27.40;99.90;;;;;;6044743;23;20007;-94
2022/08/26 17:13:52;;;;;;;18.60;15.43;;;27.40;99.90;;;;;;6028947;23;20048;-94
2022/08/26 17:16:24;;;;;;;22.33;14.43;;;27.40;99.90;;;;;;6047635;23;20007;-93
2022/08/26 17:18:51;;;;;;;21.83;14.52;;;27.30;99.90;;;;;;6076522;23;20081;-93
2022/08/26 17:21:20;;;;;;;20.55;14.80;;;27.30;99.90;;;;;;6080305;23;20010;-93
2022/08/26 17:24:06;;;;;;;20.50;15.35;;;27.20;99.90;;;;;;6081861;23;20037;-93
2022/08/26 17:26:36;;;;;;;18.73;15.40;;;27.10;99.90;;;;;;6104874;23;20010;-93
2022/08/26 17:29:08;;;;;;;26.77;15.80;;;27.00;99.90;;;;;;6080196;23;20014;-94
2022/08/26 17:31:51;;;;;;;18.73;16.75;;;26.90;99.90;;;;;;6095915;23;20045;-93
2022/08/26 17:34:48;;;;;;;22.67;15.85;;;26.90;99.90;;;;;;6136256;23;20025;-92
2022/08/26 17:37:30;;;;;;;18.08;15.32;;;26.80;99.90;;;;;;6107574;23;20009;-94
2022/08/26 17:40:25;;;;;;;26.58;15.45;;;26.70;99.90;;;;;;6112126;23;20312;-94
2022/08/26 17:43:08;;;;;;;15.93;14.35;;;26.70;99.90;;;;;;6107286;23;20013;-93
2022/08/26 17:45:52;;;;;;;;;;;;;;;;;;;;;
2022/08/26 17:49:08;;;;;;;19.48;14.10;;;26.50;99.90;;;;;;6132736;23;20084;-93
2022/08/26 18:01:12;;;;;;;15.55;13.80;;;26.20;99.90;;;;;;6157552;23;20030;-91
2022/08/26 18:04:37;;;;;;;14.82;12.60;;;26.20;99.90;;;;;;6106063;23;20016;-93
2022/08/26 18:57:46;;;;;;;16.30;13.13;;;25.60;99.90;;;;;;6174199;23;20021;-95
2022/08/26 19:11:42;;;;;;;23.48;12.80;;;25.40;99.90;;;;;;6187807;23;20029;-94
2022/08/26 19:14:57;;;;;;;19.85;13.68;;;25.40;99.90;;;;;;6139898;23;20049;-92
2022/08/26 19:18:32;;;;;;;20.45;13.40;;;25.40;99.90;;;;;;6150996;23;20020;-95
2022/08/26 19:22:10;;;;;;;;;;;;;;;;;;;;;
2022/08/26 19:34:29;;;;;;;;;;;;;;;;;;;;;
2022/08/26 19:37:28;;;;;;;15.40;13.85;;;25.30;99.90;;;;;;6162260;23;20045;-94
2022/08/26 19:40:18;;;;;;;;;;;;;;;;;;;;;
2022/08/26 19:43:27;;;;;;;15.93;14.07;;;25.30;99.90;;;;;;6173594;23;20052;-94
2022/08/26 19:46:00;;;;;;;16.48;13.60;;;25.30;99.90;;;;;;6142556;23;20032;-93
2022/08/26 19:48:51;;;;;;;16.67;14.85;;;25.30;99.90;;;;;;6138015;23;20010;-92
2022/08/26 19:54:17;;;;;;;17.63;14.07;;;25.40;99.90;;;;;;6196876;23;20050;-95
2022/08/26 19:57:12;;;;;;;19.23;13.52;;;25.50;99.90;;;;;;6123511;23;20085;-94
2022/08/26 19:59:41;;;;;;;15.82;13.85;;;25.50;99.90;;;;;;6104397;23;20009;-93
2022/08/26 20:02:14;;;;;;;15.45;13.63;;;25.50;99.90;;;;;;6097667;23;20002;-93
2022/08/26 20:04:41;;;;;;;21.08;14.20;;;25.40;99.90;;;;;;6149460;23;20009;-94
2022/08/26 20:07:13;;;;;;;23.15;14.90;;;25.40;99.90;;;;;;6160097;23;19997;-93
2022/08/26 20:09:47;;;;;;;19.08;15.25;;;25.30;99.90;;;;;;6155962;23;20010;-94
2022/08/26 20:12:16;;;;;;;21.85;13.90;;;25.20;99.90;;;;;;6183793;23;20019;-93
2022/08/26 20:25:45;;;;;;;20.42;12.98;;;24.90;99.90;;;;;;6090050;23;20030;-93
2022/08/26 20:28:36;;;;;;;19.17;14.25;;;24.90;99.90;;;;;;6072351;23;20058;-95
2022/08/26 20:31:39;;;;;;;23.37;14.77;;;24.80;99.90;;;;;;6089137;23;20077;-95
2022/08/26 20:56:31;;;;;;;18.10;12.80;;;24.50;99.90;;;;;;6167375;23;20033;-94
2022/08/26 22:33:38;;;;;;;27.33;14.90;;;23.40;99.90;;;;;;6111967;23;20394;-93
2022/08/26 23:16:56;;;;;;;24.83;14.15;;;23.50;99.90;;;;;;6150714;23;20025;-95
2022/08/26 23:24:45;;;;;;;25.33;14.18;;;23.50;99.90;;;;;;6062362;23;20015;-94
2022/08/26 23:32:07;;;;;;;20.80;13.85;;;23.20;99.90;;;;;;6124227;23;20032;-94
2022/08/26 23:58:00;;;;;;;26.48;14.23;;;22.60;99.90;;;;;;5845933;24;20014;-94
